ADDS METAR Data INFO
IDs: Format: Raw Decoded Include TAF

Data at: 0753 UTC 17 Oct 2017

KHBR 170653Z AUTO 20007KT 10SM CLR 09/04 A3025 RMK AO2 SLP239 T00890039
KHBR 170553Z AUTO 18008KT 10SM CLR 10/04 A3027 RMK AO2 SLP244 T01000039 10183 20094 402220050 58005
KHBR 170453Z AUTO 18008KT 10SM CLR 11/04 A3028 RMK AO2 SLP250 T01060039
KHBR 170353Z AUTO 17009KT 10SM CLR 12/04 A3029 RMK AO2 SLP251 T01220039
KHBR 170253Z AUTO 16009KT 10SM CLR 12/04 A3029 RMK AO2 SLP252 T01220039 50003
KHBR 170153Z AUTO 16008KT 10SM CLR 13/04 A3029 RMK AO2 SLP255 T01280039
KHBR 170053Z AUTO 17008KT 10SM CLR 14/03 A3028 RMK AO2 SLP253 T01440033
KHBR 162353Z AUTO 18006KT 10SM CLR 18/02 A3028 RMK AO2 SLP250 T01830022 10222 20183 56013
KHBR 162253Z AUTO 19007KT 10SM CLR 21/02 A3029 RMK AO2 SLP251 T02110017
KHBR 162153Z AUTO 18006KT 10SM CLR 21/01 A3030 RMK AO2 SLP256 T02110006
KHBR 162053Z AUTO 19009KT 10SM CLR 21/01 A3032 RMK AO2 SLP261 T02110011 56035
KHBR 161953Z AUTO 23009KT CLR 21/02 A3035 RMK AO2 SLP271 T02110022 PWINO $
KHBR 161853Z AUTO 14008KT CLR 21/02 A3038 RMK AO2 SLP284 T02060017 PWINO $
KHBR 161753Z AUTO VRB04KT CLR 19/02 A3042 RMK AO2 SLP298 T01940017 10194 20050 58015 PWINO $
KHBR 161653Z AUTO 18007KT CLR 18/02 A3046 RMK AO2 SLP310 T01830017 PWINO $
KHBR 161553Z AUTO VRB05KT CLR 16/03 A3047 RMK AO2 SLP315 T01560033 PWINO $
KHBR 161453Z AUTO 00000KT CLR 13/07 A3047 RMK AO2 SLP316 T01330067 53008 PWINO $
KHBR 161353Z AUTO 00000KT CLR 10/05 A3046 RMK AO2 SLP314 T01000050 PWINO $
KHBR 161253Z AUTO 00000KT CLR 06/04 A3045 RMK AO2 SLP311 T00610039 PWINO $
KHBR 161153Z AUTO 35003KT CLR 07/04 A3045 RMK AO2 SLP307 T00670039 10083 20056 53003 PWINO $
KHBR 161053Z AUTO 32004KT CLR 06/04 A3044 RMK AO2 SLP303 T00610039 PWINO $
KHBR 160953Z AUTO 34007KT CLR 07/04 A3043 RMK AO2 SLP301 T00670039 PWINO $
KHBR 160853Z AUTO 33005KT CLR 07/04 A3044 RMK AO2 SLP302 T00720039 58002 PWINO $
KHBR 160753Z AUTO 32005KT CLR 07/04 A3045 RMK AO2 SLP306 T00720044 PWINO $
KHBR 160653Z AUTO 30005KT CLR 07/04 A3044 RMK AO2 SLP305 T00670039 PWINO $
KHBR 160649Z AUTO 30005KT CLR 07/04 A3044 RMK AO2 PWINO $
KHBR 160640Z AUTO 30004KT 1/2SM HZ CLR 07/04 A3044 RMK AO2 T00720044 $
KHBR 160553Z AUTO 31004KT 1 1/2SM HZ CLR 08/04 A3043 RMK AO2 SLP302 T00780044 10172 20078 402170078 50004 $
KHBR 160551Z AUTO 31004KT 1 3/4SM HZ CLR 08/04 A3044 RMK AO2 $
KHBR 160515Z AUTO 34003KT 3SM HZ CLR 08/04 A3044 RMK AO2 T00830044 $
KHBR 160453Z AUTO 32003KT 1 1/2SM HZ CLR 08/04 A3044 RMK AO2 SLP306 T00830044 $
KHBR 160446Z AUTO 00000KT 1 3/4SM HZ CLR 08/04 A3044 RMK AO2 T00830039 $
KHBR 160353Z AUTO 05005KT 10SM CLR 11/03 A3044 RMK AO2 SLP304 T01060033 $
KHBR 160253Z AUTO 05005KT 10SM CLR 11/04 A3042 RMK AO2 SLP300 T01060039 53015 $
KHBR 160153Z AUTO 02006KT 10SM CLR 12/03 A3040 RMK AO2 SLP294 T01220033 $
KHBR 160053Z AUTO 03006KT 10SM CLR 13/03 A3039 RMK AO2 SLP289 T01330028 $
KHBR 152353Z AUTO 03007KT 10SM CLR 17/02 A3038 RMK AO2 SLP281 T01720017 10217 20172 56004 $
KHBR 152253Z AUTO 03013KT 10SM CLR 21/00 A3038 RMK AO2 SLP280 T02060000 $
KHBR 152153Z AUTO 03014KT 10SM CLR 21/01 A3038 RMK AO2 SLP281 T02110006 $
KHBR 152053Z AUTO 04016KT 10SM CLR 21/02 A3039 RMK AO2 SLP283 T02110017 56019 $